Weather at Autobahn Police Heliport

Public forecast

Using degrees Celsius for public forecast. Weather courtesy of forecast.io.

Closest aviation weather report (METAR) to Autobahn Police Heliport

Closest report is Friedrichshafen Airport, 16.5 nm (30.5 km) WSW. Retrieved 2020/12/01 01:20 UTC (33 minutes ago):

EDNY 010120Z AUTO 25003KT 210V280 9999 // OVC014/// 01/M02 Q1020

Closest aviation forecast (TAF) to Autobahn Police Heliport

Closest forecast is Friedrichshafen Airport, 16.5 nm (30.5 km) WSW. Retrieved 2020-12-01 00:27 UTC (1 hour ago):

TAF EDNY 302300Z 0100/0124 23005KT 9999 OVC020 BECMG 0104/0106 4000 -RASN SCT003 OVC012 TEMPO 0106/0111 1200 -SN OVC003 BECMG 0112/0114 6000 BKN008 BECMG 0117/0120 05003KT 3000 BR BKN003